N22FS KLEX-KSME
Flight info
| Callsign | N22FS |
|---|---|
| Flight time | N/A |
| Altitude | 9000 |
| Route | AZLEC |
| Aircraft | COL4/L-SDFR/C |
Departure
| Time | 2026-04-14 23:55 |
|---|---|
| Airport | Blue Grass Airport (KLEX) |
Arrival
| Time | N/A |
|---|---|
| Airport | Lake Cumberland Regional Airport (KSME) |
| Time | Latitude | Longitude | Altitude | Speed | Heading |
|---|---|---|---|---|---|
| 2026-04-14 23:43 | 38.03850 | -84.61061 | 938 ft | 0 kts | 82° |
| 2026-04-14 23:45 | 38.03850 | -84.61060 | 938 ft | 0 kts | 82° |
| 2026-04-14 23:45 | 38.03870 | -84.61043 | 939 ft | 9 kts | 17° |
| 2026-04-14 23:45 | 38.03892 | -84.60961 | 941 ft | 10 kts | 67° |
| 2026-04-14 23:46 | 38.03882 | -84.60907 | 942 ft | 5 kts | 185° |
| 2026-04-14 23:46 | 38.03858 | -84.60903 | 941 ft | 2 kts | 98° |
| 2026-04-14 23:46 | 38.03860 | -84.60899 | 942 ft | 0 kts | 33° |
| 2026-04-14 23:47 | 38.03861 | -84.60898 | 942 ft | 1 kts | 28° |
| 2026-04-14 23:47 | 38.03894 | -84.60881 | 942 ft | 10 kts | 21° |
| 2026-04-14 23:47 | 38.03949 | -84.60800 | 944 ft | 17 kts | 91° |
| 2026-04-14 23:48 | 38.03968 | -84.60660 | 947 ft | 14 kts | 82° |
| 2026-04-14 23:48 | 38.03958 | -84.60564 | 949 ft | 9 kts | 159° |
| 2026-04-14 23:48 | 38.03900 | -84.60547 | 947 ft | 9 kts | 166° |
| 2026-04-14 23:48 | 38.03853 | -84.60500 | 945 ft | 9 kts | 125° |
| 2026-04-14 23:49 | 38.03814 | -84.60442 | 944 ft | 8 kts | 134° |
| 2026-04-14 23:49 | 38.03784 | -84.60399 | 945 ft | 7 kts | 130° |
| 2026-04-14 23:49 | 38.03736 | -84.60334 | 944 ft | 14 kts | 128° |
| 2026-04-14 23:49 | 38.03719 | -84.60205 | 945 ft | 20 kts | 60° |
| 2026-04-14 23:50 | 38.03803 | -84.60083 | 947 ft | 17 kts | 36° |
| 2026-04-14 23:50 | 38.03886 | -84.59996 | 948 ft | 14 kts | 27° |
| 2026-04-14 23:50 | 38.03959 | -84.59991 | 949 ft | 10 kts | 40° |
| 2026-04-14 23:50 | 38.04005 | -84.59942 | 950 ft | 8 kts | 30° |
| 2026-04-14 23:51 | 38.04045 | -84.59947 | 950 ft | 5 kts | 310° |
| 2026-04-14 23:51 | 38.04050 | -84.59954 | 950 ft | 0 kts | 309° |
| 2026-04-14 23:54 | 38.04050 | -84.59956 | 950 ft | 2 kts | 309° |
| 2026-04-14 23:54 | 38.04085 | -84.60016 | 950 ft | 14 kts | 269° |
| 2026-04-14 23:54 | 38.03953 | -84.60186 | 947 ft | 53 kts | 224° |
| 2026-04-14 23:54 | 38.03554 | -84.60624 | 954 ft | 94 kts | 220° |
| 2026-04-14 23:55 | 38.03003 | -84.61256 | 1005 ft | 113 kts | 223° |
| 2026-04-14 23:55 | 38.02388 | -84.61744 | 1437 ft | 103 kts | 178° |
| 2026-04-14 23:55 | 38.01902 | -84.60991 | 1719 ft | 131 kts | 125° |
| 2026-04-14 23:55 | 38.01465 | -84.59860 | 1808 ft | 159 kts | 120° |
| 2026-04-14 23:56 | 38.00975 | -84.58505 | 1895 ft | 169 kts | 121° |
| 2026-04-14 23:56 | 38.00506 | -84.57169 | 2274 ft | 163 kts | 122° |
| 2026-04-14 23:56 | 38.00067 | -84.55883 | 2651 ft | 160 kts | 120° |
| 2026-04-14 23:56 | 37.99939 | -84.54485 | 3018 ft | 167 kts | 84° |
| 2026-04-14 23:57 | 37.99864 | -84.53130 | 3385 ft | 147 kts | 131° |
| 2026-04-14 23:57 | 37.99069 | -84.52553 | 3759 ft | 129 kts | 185° |
| 2026-04-14 23:57 | 37.98206 | -84.52782 | 4147 ft | 127 kts | 200° |
| 2026-04-14 23:57 | 37.97343 | -84.53012 | 4544 ft | 127 kts | 198° |
| 2026-04-14 23:58 | 37.96470 | -84.53228 | 4903 ft | 129 kts | 199° |
| 2026-04-14 23:58 | 37.95579 | -84.53422 | 5285 ft | 131 kts | 198° |
| 2026-04-14 23:58 | 37.94674 | -84.53614 | 5675 ft | 133 kts | 198° |
| 2026-04-14 23:58 | 37.93752 | -84.53808 | 6067 ft | 135 kts | 198° |
| 2026-04-14 23:59 | 37.92817 | -84.53999 | 6466 ft | 137 kts | 198° |
| 2026-04-14 23:59 | 37.91873 | -84.54198 | 6835 ft | 139 kts | 198° |
| 2026-04-14 23:59 | 37.90926 | -84.54398 | 7205 ft | 140 kts | 198° |
| 2026-04-14 23:59 | 37.89962 | -84.54607 | 7586 ft | 141 kts | 198° |
| 2026-04-15 00:00 | 37.89008 | -84.54806 | 8055 ft | 136 kts | 198° |
| 2026-04-15 00:00 | 37.88083 | -84.54990 | 8538 ft | 133 kts | 198° |
| 2026-04-15 00:00 | 37.87176 | -84.55168 | 9009 ft | 133 kts | 198° |
| 2026-04-15 00:00 | 37.86173 | -84.55384 | 9063 ft | 159 kts | 198° |
| 2026-04-15 00:01 | 37.84986 | -84.55365 | 9069 ft | 185 kts | 175° |
| 2026-04-15 00:01 | 37.83719 | -84.54899 | 9070 ft | 198 kts | 169° |
| 2026-04-15 00:01 | 37.82379 | -84.54412 | 9062 ft | 202 kts | 172° |
| 2026-04-15 00:01 | 37.81001 | -84.54012 | 9073 ft | 204 kts | 174° |
| 2026-04-15 00:02 | 37.79600 | -84.53625 | 9074 ft | 207 kts | 174° |